createdAt,value
2019-01-23T00:00:00.978Z,762.87
2019-01-23T00:00:05.261Z,762.9
2019-01-23T00:00:09.547Z,762.85
2019-01-23T00:00:13.736Z,762.87
2019-01-23T00:00:18.017Z,762.83
2019-01-23T00:00:22.301Z,762.81
2019-01-23T00:00:26.586Z,762.8
2019-01-23T00:00:30.771Z,762.8
2019-01-23T00:00:35.059Z,762.78
2019-01-23T00:00:39.258Z,762.8
2019-01-23T00:00:43.543Z,762.8
2019-01-23T00:00:47.831Z,762.82
2019-01-23T00:00:52.115Z,762.8
2019-01-23T00:00:56.303Z,762.79
2019-01-23T00:01:00.594Z,762.79
2019-01-23T00:01:04.940Z,762.75
2019-01-23T00:01:09.123Z,762.77
2019-01-23T00:01:13.448Z,762.75
2019-01-23T00:01:17.730Z,762.75
2019-01-23T00:01:22.019Z,762.77
2019-01-23T00:01:26.308Z,762.74
2019-01-23T00:01:30.492Z,762.72
2019-01-23T00:01:34.777Z,762.74
2019-01-23T00:01:39.063Z,762.73
2019-01-23T00:01:43.352Z,762.71
2019-01-23T00:01:47.646Z,762.71
2019-01-23T00:01:51.836Z,762.7
2019-01-23T00:01:56.023Z,762.65
2019-01-23T00:02:00.313Z,762.7
2019-01-23T00:02:04.607Z,762.69
2019-01-23T00:02:08.696Z,762.67
2019-01-23T00:02:12.979Z,762.68
2019-01-23T00:02:17.173Z,762.63
2019-01-23T00:02:21.485Z,762.67
2019-01-23T00:02:25.773Z,762.72
2019-01-23T00:02:29.961Z,762.68
2019-01-23T00:02:34.147Z,762.66
2019-01-23T00:02:38.431Z,762.65
2019-01-23T00:02:42.723Z,762.71
2019-01-23T00:02:46.824Z,762.65
2019-01-23T00:02:51.114Z,762.64
2019-01-23T00:02:55.401Z,762.66
2019-01-23T00:02:59.683Z,762.58
2019-01-23T00:03:03.869Z,762.59
2019-01-23T00:03:08.148Z,762.57
2019-01-23T00:03:12.434Z,762.51
2019-01-23T00:03:16.718Z,762.55
2019-01-23T00:03:21.005Z,762.48
2019-01-23T00:03:25.291Z,762.48
2019-01-23T00:03:29.579Z,762.43
2019-01-23T00:03:33.861Z,762.45
2019-01-23T00:03:38.085Z,762.45
2019-01-23T00:03:42.388Z,762.45
2019-01-23T00:03:46.674Z,762.5
2019-01-23T00:03:50.880Z,762.47
2019-01-23T00:03:55.196Z,762.39
2019-01-23T00:03:59.293Z,762.39
2019-01-23T00:04:03.393Z,762.43
2019-01-23T00:04:07.676Z,762.38
2019-01-23T00:04:11.974Z,762.32
2019-01-23T00:04:16.157Z,762.36
2019-01-23T00:04:20.444Z,762.4
2019-01-23T00:04:24.736Z,762.59
2019-01-23T00:04:28.830Z,762.42
2019-01-23T00:04:33.021Z,762.35
2019-01-23T00:04:37.209Z,762.32
2019-01-23T00:04:41.407Z,762.3
2019-01-23T00:04:45.734Z,762.24
2019-01-23T00:04:50.018Z,762.18
2019-01-23T00:04:54.107Z,762.2
2019-01-23T00:04:58.405Z,762.13
2019-01-23T00:05:02.690Z,762.11
2019-01-23T00:05:06.985Z,762.12
2019-01-23T00:05:11.275Z,762.11
2019-01-23T00:05:15.466Z,762.1
2019-01-23T00:05:19.657Z,762.07
2019-01-23T00:05:23.946Z,762.07
2019-01-23T00:05:28.236Z,762.13
2019-01-23T00:05:32.526Z,762.07
2019-01-23T00:05:36.618Z,762.09
2019-01-23T00:05:40.934Z,762.02
2019-01-23T00:05:45.224Z,762.05
2019-01-23T00:05:49.321Z,762.04
2019-01-23T00:05:53.507Z,762.08
2019-01-23T00:05:57.788Z,762
2019-01-23T00:06:02.070Z,762.01
2019-01-23T00:06:06.403Z,762.02
2019-01-23T00:06:10.695Z,761.96
2019-01-23T00:06:14.885Z,761.95
2019-01-23T00:06:19.176Z,761.93
2019-01-23T00:06:23.463Z,761.91
2019-01-23T00:06:27.751Z,761.92
2019-01-23T00:06:32.076Z,761.88
2019-01-23T00:06:36.360Z,761.87
2019-01-23T00:06:40.646Z,761.91
2019-01-23T00:06:44.931Z,761.85
2019-01-23T00:06:49.218Z,761.86
2019-01-23T00:06:53.507Z,761.84
2019-01-23T00:06:57.803Z,761.81
2019-01-23T00:07:02.110Z,761.82
2019-01-23T00:07:06.395Z,761.82
2019-01-23T00:07:10.579Z,761.79
2019-01-23T00:07:14.765Z,761.77
2019-01-23T00:07:19.047Z,761.78
2019-01-23T00:07:23.334Z,761.75
2019-01-23T00:07:27.535Z,761.75
2019-01-23T00:07:31.837Z,761.76
2019-01-23T00:07:36.128Z,761.74
2019-01-23T00:07:40.316Z,761.78
2019-01-23T00:07:44.599Z,761.74
2019-01-23T00:07:48.797Z,761.76
2019-01-23T00:07:53.089Z,761.7
2019-01-23T00:07:57.373Z,761.72
2019-01-23T00:08:01.664Z,761.7
2019-01-23T00:08:06.054Z,761.71
2019-01-23T00:08:10.341Z,761.65
2019-01-23T00:08:14.529Z,761.68
2019-01-23T00:08:18.836Z,761.66
2019-01-23T00:08:23.121Z,761.65
2019-01-23T00:08:27.409Z,761.63
2019-01-23T00:08:31.598Z,761.64
2019-01-23T00:08:35.881Z,761.6
2019-01-23T00:08:40.173Z,761.59
2019-01-23T00:08:44.460Z,761.6
2019-01-23T00:08:48.753Z,761.54
2019-01-23T00:08:52.945Z,761.57
2019-01-23T00:08:57.139Z,761.53
2019-01-23T00:09:01.326Z,761.54
2019-01-23T00:09:05.767Z,761.54
2019-01-23T00:09:10.089Z,761.65
2019-01-23T00:09:14.376Z,761.53
2019-01-23T00:09:18.658Z,761.55
2019-01-23T00:09:22.945Z,761.52
2019-01-23T00:09:26.947Z,761.54
2019-01-23T00:09:31.230Z,761.51
2019-01-23T00:09:35.533Z,761.52
2019-01-23T00:09:39.726Z,761.5
2019-01-23T00:09:44.009Z,761.5
2019-01-23T00:09:48.296Z,761.47
2019-01-23T00:09:52.579Z,761.48
2019-01-23T00:09:56.865Z,761.51
2019-01-23T00:10:00.960Z,761.47
2019-01-23T00:10:05.247Z,761.51
2019-01-23T00:10:09.531Z,761.48
2019-01-23T00:10:13.815Z,761.51
2019-01-23T00:10:18.101Z,761.46
2019-01-23T00:10:22.384Z,761.49
2019-01-23T00:10:26.576Z,761.45
2019-01-23T00:10:30.763Z,761.42
2019-01-23T00:10:35.048Z,761.4
2019-01-23T00:10:39.337Z,761.42
2019-01-23T00:10:43.627Z,761.43
2019-01-23T00:10:47.816Z,761.45
2019-01-23T00:10:52.018Z,761.39
2019-01-23T00:10:56.303Z,761.41
2019-01-23T00:11:00.493Z,761.48
2019-01-23T00:11:04.783Z,761.46
2019-01-23T00:11:08.968Z,761.44
2019-01-23T00:11:13.255Z,761.44
2019-01-23T00:11:17.540Z,761.44
2019-01-23T00:11:21.636Z,761.42
2019-01-23T00:11:25.824Z,761.44
2019-01-23T00:11:30.019Z,761.43
2019-01-23T00:11:34.212Z,761.41
2019-01-23T00:11:38.397Z,761.45
2019-01-23T00:11:42.687Z,761.44
2019-01-23T00:11:46.996Z,761.42
2019-01-23T00:11:51.285Z,761.41
2019-01-23T00:11:55.609Z,761.39
2019-01-23T00:11:59.898Z,761.39
2019-01-23T00:12:04.086Z,761.39
2019-01-23T00:12:08.277Z,761.35
2019-01-23T00:12:12.564Z,761.37
2019-01-23T00:12:16.649Z,761.39
2019-01-23T00:12:20.740Z,761.34
2019-01-23T00:12:25.026Z,761.35
2019-01-23T00:12:29.216Z,761.31
2019-01-23T00:12:33.518Z,761.29
2019-01-23T00:12:37.807Z,761.25
2019-01-23T00:12:42.099Z,761.29
2019-01-23T00:12:46.394Z,761.28
2019-01-23T00:12:50.676Z,761.27
2019-01-23T00:12:54.956Z,761.25
2019-01-23T00:12:59.239Z,761.23
2019-01-23T00:13:05.036Z,761.2
2019-01-23T00:13:09.242Z,761.21
2019-01-23T00:13:13.427Z,761.2
2019-01-23T00:13:17.712Z,761.16
2019-01-23T00:13:21.995Z,761.16
2019-01-23T00:13:26.285Z,761.19
2019-01-23T00:13:30.574Z,761.19
2019-01-23T00:13:34.675Z,761.2
2019-01-23T00:13:38.965Z,761.19
2019-01-23T00:13:43.099Z,761.13
2019-01-23T00:13:47.384Z,761.13
2019-01-23T00:13:51.582Z,761.14
2019-01-23T00:13:55.876Z,761.16
2019-01-23T00:14:00.160Z,761.11
2019-01-23T00:14:04.449Z,761.11
2019-01-23T00:14:08.733Z,761.11
2019-01-23T00:14:12.827Z,761.11
2019-01-23T00:14:17.015Z,761.11
2019-01-23T00:14:21.301Z,761.1
2019-01-23T00:14:25.600Z,761.07
2019-01-23T00:14:29.901Z,761.07
2019-01-23T00:14:34.090Z,761.05
2019-01-23T00:14:38.382Z,761.08
2019-01-23T00:14:42.573Z,761.07
2019-01-23T00:14:46.858Z,761.09
2019-01-23T00:14:51.145Z,761.06
2019-01-23T00:14:55.438Z,761.04
2019-01-23T00:14:59.722Z,761.04
2019-01-23T00:15:03.910Z,761.03
2019-01-23T00:15:08.199Z,761.06
2019-01-23T00:15:12.492Z,761.07
2019-01-23T00:15:16.780Z,761.02
2019-01-23T00:15:21.074Z,761.04
2019-01-23T00:15:25.366Z,761.05
2019-01-23T00:15:29.671Z,761.06
2019-01-23T00:15:33.858Z,761.03
2019-01-23T00:15:38.151Z,761
2019-01-23T00:15:42.338Z,761.03
2019-01-23T00:15:46.523Z,760.95
2019-01-23T00:15:50.744Z,760.97
2019-01-23T00:15:55.034Z,761
2019-01-23T00:15:59.336Z,760.94
2019-01-23T00:16:03.669Z,760.93
2019-01-23T00:16:07.858Z,760.94
2019-01-23T00:16:12.052Z,760.92
2019-01-23T00:16:16.250Z,760.87
2019-01-23T00:16:20.555Z,760.9
2019-01-23T00:16:24.844Z,760.89
2019-01-23T00:16:29.124Z,760.86
2019-01-23T00:16:33.412Z,760.88
2019-01-23T00:16:37.607Z,760.9
2019-01-23T00:16:41.795Z,760.87
2019-01-23T00:16:46.115Z,760.88
2019-01-23T00:16:50.411Z,760.88
2019-01-23T00:16:54.600Z,760.91
2019-01-23T00:16:58.885Z,760.87
2019-01-23T00:17:03.077Z,760.85
2019-01-23T00:17:07.359Z,760.86
2019-01-23T00:17:11.648Z,760.89
2019-01-23T00:17:15.738Z,760.88
2019-01-23T00:17:20.023Z,760.85
2019-01-23T00:17:24.308Z,760.86
2019-01-23T00:17:28.590Z,760.84
2019-01-23T00:17:32.881Z,760.86
2019-01-23T00:17:37.161Z,760.89
2019-01-23T00:17:41.444Z,760.83
2019-01-23T00:17:45.630Z,760.85
2019-01-23T00:17:49.917Z,760.84
2019-01-23T00:17:54.105Z,760.88
2019-01-23T00:17:58.403Z,760.89
2019-01-23T00:18:02.601Z,760.84
2019-01-23T00:18:06.890Z,760.78
2019-01-23T00:18:11.074Z,760.77
2019-01-23T00:18:15.364Z,760.81
2019-01-23T00:18:19.649Z,760.82
2019-01-23T00:18:23.939Z,760.83
2019-01-23T00:18:29.297Z,760.86
2019-01-23T00:18:33.645Z,760.84
2019-01-23T00:18:37.942Z,760.84
2019-01-23T00:18:42.226Z,760.83
2019-01-23T00:18:46.519Z,760.87
2019-01-23T00:18:50.801Z,760.86
2019-01-23T00:18:54.990Z,760.86
2019-01-23T00:18:59.279Z,760.88
2019-01-23T00:19:03.465Z,760.87
2019-01-23T00:19:07.655Z,760.84
2019-01-23T00:19:11.942Z,760.86
2019-01-23T00:19:16.133Z,760.86
2019-01-23T00:19:20.325Z,760.85
2019-01-23T00:19:24.519Z,760.85
2019-01-23T00:19:28.802Z,760.89
2019-01-23T00:19:33.084Z,760.85
2019-01-23T00:19:37.371Z,760.83
2019-01-23T00:19:41.660Z,760.82
2019-01-23T00:19:45.951Z,760.86
2019-01-23T00:19:50.241Z,760.82
2019-01-23T00:19:54.543Z,760.82
2019-01-23T00:19:58.835Z,760.79
2019-01-23T00:20:03.141Z,760.85
2019-01-23T00:20:07.426Z,760.83
2019-01-23T00:20:11.720Z,760.83
2019-01-23T00:20:16.009Z,760.79
2019-01-23T00:20:20.203Z,760.82
2019-01-23T00:20:24.496Z,760.84
2019-01-23T00:20:28.678Z,760.84
2019-01-23T00:20:32.970Z,760.81
2019-01-23T00:20:37.253Z,760.83
2019-01-23T00:20:41.440Z,760.8
2019-01-23T00:20:45.638Z,760.81
2019-01-23T00:20:49.828Z,760.79
2019-01-23T00:20:54.121Z,760.84
2019-01-23T00:20:58.414Z,760.8
2019-01-23T00:21:02.748Z,760.81
2019-01-23T00:21:07.041Z,760.83
2019-01-23T00:21:11.331Z,760.82
2019-01-23T00:21:15.614Z,760.84
2019-01-23T00:21:19.813Z,760.83
2019-01-23T00:21:24.102Z,760.83
2019-01-23T00:21:28.388Z,760.85
2019-01-23T00:21:32.572Z,760.84
2019-01-23T00:21:36.857Z,760.84
2019-01-23T00:21:41.143Z,760.84
2019-01-23T00:21:45.336Z,760.84
2019-01-23T00:21:49.627Z,760.84
2019-01-23T00:21:53.915Z,760.82
2019-01-23T00:21:58.200Z,760.82
2019-01-23T00:22:02.400Z,760.84
2019-01-23T00:22:06.704Z,760.84
2019-01-23T00:22:10.991Z,760.83
2019-01-23T00:22:15.275Z,760.83
2019-01-23T00:22:19.599Z,760.84
2019-01-23T00:22:23.908Z,760.86
2019-01-23T00:22:28.194Z,760.85
2019-01-23T00:22:32.480Z,760.86
2019-01-23T00:22:36.573Z,760.86
2019-01-23T00:22:40.860Z,760.88
2019-01-23T00:22:45.054Z,760.89
2019-01-23T00:22:49.184Z,760.88
2019-01-23T00:22:53.469Z,760.9
2019-01-23T00:22:57.659Z,760.88
2019-01-23T00:23:01.949Z,760.89
2019-01-23T00:23:06.235Z,760.87
2019-01-23T00:23:10.524Z,760.89
2019-01-23T00:23:14.619Z,760.9
2019-01-23T00:23:18.909Z,760.94
2019-01-23T00:23:23.199Z,760.93
2019-01-23T00:23:27.391Z,760.9
2019-01-23T00:23:31.533Z,760.94
2019-01-23T00:23:35.821Z,760.97
2019-01-23T00:23:40.014Z,760.91
2019-01-23T00:23:44.305Z,761.3
2019-01-23T00:23:48.591Z,761.7
2019-01-23T00:23:52.882Z,761.31
2019-01-23T00:23:57.167Z,761.21
2019-01-23T00:24:01.361Z,761.18
2019-01-23T00:24:05.688Z,761.17
2019-01-23T00:24:09.975Z,761.14
2019-01-23T00:24:14.259Z,761.11
2019-01-23T00:24:18.544Z,761.12
2019-01-23T00:24:22.829Z,761.08
2019-01-23T00:24:27.121Z,761.09
2019-01-23T00:24:31.406Z,761.07
2019-01-23T00:24:35.697Z,761.07
2019-01-23T00:24:39.982Z,761.05
2019-01-23T00:24:44.266Z,761.07
2019-01-23T00:24:48.552Z,761.03
2019-01-23T00:24:52.743Z,761.01
2019-01-23T00:24:57.030Z,760.99
2019-01-23T00:25:01.227Z,760.95
2019-01-23T00:25:05.517Z,760.97
2019-01-23T00:25:09.810Z,760.99
2019-01-23T00:25:14.102Z,760.98
2019-01-23T00:25:18.310Z,760.97
2019-01-23T00:25:22.498Z,760.99
2019-01-23T00:25:26.781Z,760.96
2019-01-23T00:25:31.068Z,760.93
2019-01-23T00:25:35.358Z,760.97
2019-01-23T00:25:39.649Z,760.96
2019-01-23T00:25:43.939Z,760.96
2019-01-23T00:25:49.441Z,760.95
2019-01-23T00:25:53.724Z,760.96
2019-01-23T00:25:58.024Z,761.35
2019-01-23T00:26:02.215Z,762.05
2019-01-23T00:26:06.518Z,762.36
2019-01-23T00:26:10.820Z,762.67
2019-01-23T00:26:15.103Z,762.9
2019-01-23T00:26:19.194Z,763.25
2019-01-23T00:26:23.496Z,763.46
2019-01-23T00:26:27.685Z,763.69
2019-01-23T00:26:31.974Z,763.95
2019-01-23T00:26:36.262Z,764.15
2019-01-23T00:26:40.553Z,764.31
2019-01-23T00:26:44.768Z,764.33
2019-01-23T00:26:48.967Z,764.41
2019-01-23T00:26:53.157Z,764.48
2019-01-23T00:26:57.351Z,764.56
2019-01-23T00:27:01.637Z,764.66
2019-01-23T00:27:06.092Z,764.77
2019-01-23T00:27:10.288Z,764.92
2019-01-23T00:27:14.579Z,765.18
2019-01-23T00:27:18.821Z,765.34
2019-01-23T00:27:23.019Z,765.37
2019-01-23T00:27:27.309Z,765.5
2019-01-23T00:27:31.591Z,765.31
2019-01-23T00:27:35.874Z,765.35
2019-01-23T00:27:40.169Z,764.54
2019-01-23T00:27:44.450Z,764.16
2019-01-23T00:27:48.736Z,763.94
2019-01-23T00:27:53.022Z,763.71
2019-01-23T00:27:57.323Z,763.56
2019-01-23T00:28:01.617Z,763.45
2019-01-23T00:28:05.811Z,763.33
2019-01-23T00:28:10.097Z,763.24
2019-01-23T00:28:14.382Z,763.12
2019-01-23T00:28:18.663Z,763.03
2019-01-23T00:28:22.951Z,762.95
2019-01-23T00:28:27.250Z,762.89
2019-01-23T00:28:31.539Z,762.79
2019-01-23T00:28:35.733Z,762.76
2019-01-23T00:28:46.013Z,762.63
2019-01-23T00:28:50.299Z,762.69
2019-01-23T00:28:54.591Z,762.6
2019-01-23T00:28:58.877Z,762.59
2019-01-23T00:29:03.169Z,762.54
2019-01-23T00:29:07.357Z,762.52
2019-01-23T00:29:11.645Z,762.48
2019-01-23T00:29:15.927Z,762.5
2019-01-23T00:29:20.231Z,762.44
2019-01-23T00:29:24.512Z,762.39
2019-01-23T00:29:28.799Z,762.33
2019-01-23T00:29:33.085Z,762.34
2019-01-23T00:29:37.374Z,762.33
2019-01-23T00:29:41.599Z,762.26
2019-01-23T00:29:45.889Z,762.2
2019-01-23T00:29:50.180Z,762.17
2019-01-23T00:29:54.467Z,762.15
2019-01-23T00:29:58.757Z,762.13
2019-01-23T00:30:03.165Z,762.13
2019-01-23T00:30:07.362Z,762.12
2019-01-23T00:30:11.654Z,762.02
2019-01-23T00:30:15.884Z,761.99
2019-01-23T00:30:20.173Z,762
2019-01-23T00:30:24.467Z,761.97
2019-01-23T00:30:28.659Z,761.97
2019-01-23T00:30:32.954Z,761.96
2019-01-23T00:30:37.239Z,761.92
2019-01-23T00:30:41.521Z,761.91
2019-01-23T00:30:45.711Z,761.89
2019-01-23T00:30:49.997Z,761.88
2019-01-23T00:30:54.284Z,761.85
2019-01-23T00:30:58.473Z,761.8
2019-01-23T00:31:02.806Z,761.79
2019-01-23T00:31:07.109Z,761.76
2019-01-23T00:31:11.398Z,761.77
2019-01-23T00:31:15.403Z,761.67
2019-01-23T00:31:19.688Z,761.71
2019-01-23T00:31:23.972Z,761.68
2019-01-23T00:31:28.158Z,761.65
2019-01-23T00:31:32.452Z,761.62
2019-01-23T00:31:36.553Z,761.61
2019-01-23T00:31:40.845Z,761.6
2019-01-23T00:31:45.135Z,761.53
2019-01-23T00:31:49.324Z,761.52
2019-01-23T00:31:53.643Z,761.53
2019-01-23T00:31:57.931Z,761.5
2019-01-23T00:32:02.026Z,761.5
2019-01-23T00:32:06.212Z,761.47
2019-01-23T00:32:10.534Z,761.44
2019-01-23T00:32:14.821Z,761.41
2019-01-23T00:32:19.005Z,761.38
2019-01-23T00:32:23.203Z,761.36
2019-01-23T00:32:27.495Z,761.35
2019-01-23T00:32:31.590Z,761.36
2019-01-23T00:32:35.875Z,761.31
2019-01-23T00:32:40.085Z,761.29
2019-01-23T00:32:44.368Z,761.25
2019-01-23T00:32:48.652Z,761.28
2019-01-23T00:32:52.977Z,761.23
2019-01-23T00:32:57.291Z,761.22
2019-01-23T00:33:01.585Z,761.22
2019-01-23T00:33:05.782Z,761.21
2019-01-23T00:33:10.068Z,761.2
2019-01-23T00:33:14.364Z,761.17
2019-01-23T00:33:18.654Z,761.13
2019-01-23T00:33:22.854Z,761.1
2019-01-23T00:33:27.189Z,761.1
2019-01-23T00:33:31.374Z,761.09
2019-01-23T00:33:35.655Z,761.08
2019-01-23T00:33:39.844Z,761.48
2019-01-23T00:33:44.134Z,762.29
2019-01-23T00:33:48.467Z,762.74
2019-01-23T00:33:52.758Z,763.03
2019-01-23T00:33:57.044Z,762.97
2019-01-23T00:34:01.335Z,762.69
2019-01-23T00:34:05.631Z,762.26
2019-01-23T00:34:09.913Z,762.08
2019-01-23T00:34:14.203Z,761.95
2019-01-23T00:34:18.497Z,761.89
2019-01-23T00:34:22.692Z,761.8
2019-01-23T00:34:26.878Z,761.74
2019-01-23T00:34:31.162Z,761.69
2019-01-23T00:34:35.447Z,761.58
2019-01-23T00:34:39.729Z,761.61
2019-01-23T00:34:44.013Z,761.51
2019-01-23T00:34:48.298Z,761.46
2019-01-23T00:34:52.584Z,761.44
2019-01-23T00:34:56.883Z,761.4
2019-01-23T00:35:01.111Z,761.35
2019-01-23T00:35:05.404Z,761.35
2019-01-23T00:35:09.591Z,761.28
2019-01-23T00:35:13.878Z,761.26
2019-01-23T00:35:18.166Z,761.24
2019-01-23T00:35:22.355Z,761.23
2019-01-23T00:35:26.646Z,761.17
2019-01-23T00:35:30.734Z,761.19
2019-01-23T00:35:35.020Z,761.15
2019-01-23T00:35:39.303Z,761.16
2019-01-23T00:35:43.593Z,761.14
2019-01-23T00:35:47.882Z,761.11
2019-01-23T00:35:52.065Z,761.06
2019-01-23T00:35:56.355Z,761.08
2019-01-23T00:36:00.638Z,761.05
2019-01-23T00:36:04.926Z,761.04
2019-01-23T00:36:09.220Z,761.01
2019-01-23T00:36:13.415Z,761
2019-01-23T00:36:17.618Z,761
2019-01-23T00:36:21.908Z,761
2019-01-23T00:36:26.206Z,760.97
2019-01-23T00:36:30.488Z,761
2019-01-23T00:36:34.677Z,760.97
2019-01-23T00:36:38.973Z,760.95
2019-01-23T00:36:43.260Z,760.96
2019-01-23T00:36:47.550Z,760.94
2019-01-23T00:36:51.840Z,760.93
2019-01-23T00:36:56.127Z,760.9
2019-01-23T00:37:00.412Z,760.89
2019-01-23T00:37:04.700Z,760.88
2019-01-23T00:37:08.982Z,760.9
2019-01-23T00:37:13.291Z,760.83
2019-01-23T00:37:17.582Z,760.85
2019-01-23T00:37:21.867Z,760.81
2019-01-23T00:37:26.148Z,760.79
2019-01-23T00:37:30.430Z,760.84
2019-01-23T00:37:34.723Z,760.82
2019-01-23T00:37:38.966Z,760.83
2019-01-23T00:37:43.256Z,760.79
2019-01-23T00:37:47.541Z,760.77
2019-01-23T00:37:51.826Z,760.78
2019-01-23T00:37:56.014Z,760.76
2019-01-23T00:38:00.200Z,760.79
2019-01-23T00:38:04.409Z,760.81
2019-01-23T00:38:08.603Z,760.74
2019-01-23T00:38:12.891Z,760.72
2019-01-23T00:38:17.090Z,760.77
2019-01-23T00:38:22.694Z,760.73
2019-01-23T00:38:26.983Z,760.73
2019-01-23T00:38:31.269Z,760.71
2019-01-23T00:38:35.480Z,760.71
2019-01-23T00:38:39.778Z,760.73
2019-01-23T00:38:43.968Z,760.73
2019-01-23T00:38:48.154Z,760.73
2019-01-23T00:38:52.442Z,760.7
2019-01-23T00:38:56.733Z,760.74
2019-01-23T00:39:01.020Z,760.74
2019-01-23T00:39:05.313Z,760.7
2019-01-23T00:39:09.605Z,760.69
2019-01-23T00:39:13.891Z,760.7
2019-01-23T00:39:18.183Z,760.67
2019-01-23T00:39:22.483Z,760.71
2019-01-23T00:39:26.779Z,760.7
2019-01-23T00:39:31.070Z,760.7
2019-01-23T00:39:35.360Z,760.68
2019-01-23T00:39:39.452Z,760.71
2019-01-23T00:39:43.747Z,760.73
2019-01-23T00:39:48.036Z,760.72
2019-01-23T00:39:52.327Z,760.69
2019-01-23T00:39:56.618Z,760.71
2019-01-23T00:40:01.041Z,760.71
2019-01-23T00:40:05.354Z,760.7
2019-01-23T00:40:09.653Z,760.67
2019-01-23T00:40:13.970Z,760.71
2019-01-23T00:40:18.283Z,760.68
2019-01-23T00:40:22.577Z,760.71
2019-01-23T00:40:26.778Z,760.72
2019-01-23T00:40:31.062Z,760.68
2019-01-23T00:40:35.356Z,760.69
2019-01-23T00:40:39.643Z,760.66
2019-01-23T00:40:43.939Z,760.7
2019-01-23T00:40:48.225Z,760.68
2019-01-23T00:40:52.522Z,760.66
2019-01-23T00:40:56.809Z,760.69
2019-01-23T00:41:01.151Z,760.64
2019-01-23T00:41:05.436Z,760.67
2019-01-23T00:41:09.723Z,760.6
2019-01-23T00:41:14.029Z,760.61
2019-01-23T00:41:18.328Z,760.59
2019-01-23T00:41:22.619Z,760.57
2019-01-23T00:41:26.911Z,760.59
2019-01-23T00:41:31.208Z,760.6
2019-01-23T00:41:35.515Z,760.6
2019-01-23T00:41:39.802Z,760.56
2019-01-23T00:41:44.130Z,760.59
2019-01-23T00:41:48.419Z,760.56
2019-01-23T00:41:52.712Z,760.61
2019-01-23T00:41:57.015Z,760.6
2019-01-23T00:42:01.314Z,760.54
2019-01-23T00:42:05.599Z,760.49
2019-01-23T00:42:09.885Z,760.5
2019-01-23T00:42:14.179Z,760.49
2019-01-23T00:42:18.468Z,760.47
2019-01-23T00:42:22.769Z,760.46
2019-01-23T00:42:27.070Z,760.5
2019-01-23T00:42:31.365Z,760.48
2019-01-23T00:42:35.661Z,760.48
2019-01-23T00:42:39.952Z,760.45
2019-01-23T00:42:44.250Z,760.48
2019-01-23T00:42:48.452Z,760.48
2019-01-23T00:42:52.744Z,760.48
2019-01-23T00:42:57.070Z,760.48
2019-01-23T00:43:01.364Z,760.49
2019-01-23T00:43:05.652Z,760.42
2019-01-23T00:43:09.856Z,760.53
2019-01-23T00:43:14.144Z,760.54
2019-01-23T00:43:18.435Z,760.53
2019-01-23T00:43:22.725Z,760.54
2019-01-23T00:43:27.057Z,760.52
2019-01-23T00:43:31.357Z,760.53
2019-01-23T00:43:35.643Z,760.51
2019-01-23T00:43:39.931Z,760.53
2019-01-23T00:43:44.224Z,760.52
2019-01-23T00:43:48.514Z,760.5
2019-01-23T00:43:52.808Z,760.53
2019-01-23T00:43:57.099Z,760.51
2019-01-23T00:44:01.384Z,760.51
2019-01-23T00:44:05.674Z,760.51
2019-01-23T00:44:09.965Z,760.5
2019-01-23T00:44:14.265Z,760.5
2019-01-23T00:44:18.555Z,760.51
2019-01-23T00:44:22.749Z,760.51
2019-01-23T00:44:27.083Z,760.48
2019-01-23T00:44:31.369Z,760.51
2019-01-23T00:44:35.656Z,760.46
2019-01-23T00:44:39.962Z,760.49
2019-01-23T00:44:44.257Z,760.5
2019-01-23T00:44:48.546Z,760.49
2019-01-23T00:44:52.875Z,760.45
2019-01-23T00:44:57.196Z,760.48
2019-01-23T00:45:01.388Z,760.4
2019-01-23T00:45:05.675Z,760.42
2019-01-23T00:45:09.974Z,760.39
2019-01-23T00:45:14.259Z,760.41
2019-01-23T00:45:18.367Z,760.35
2019-01-23T00:45:22.558Z,760.37
2019-01-23T00:45:26.757Z,760.4
2019-01-23T00:45:31.093Z,760.43
2019-01-23T00:45:35.287Z,760.41
2019-01-23T00:45:39.574Z,760.39
2019-01-23T00:45:43.862Z,760.36
2019-01-23T00:45:48.196Z,760.39
2019-01-23T00:45:52.492Z,760.36
2019-01-23T00:45:56.814Z,760.38
2019-01-23T00:46:01.104Z,760.38
2019-01-23T00:46:05.306Z,760.33
2019-01-23T00:46:09.593Z,760.3
2019-01-23T00:46:13.880Z,760.32
2019-01-23T00:46:18.167Z,760.31
2019-01-23T00:46:22.361Z,760.34
2019-01-23T00:46:26.659Z,760.33
2019-01-23T00:46:30.948Z,760.33
2019-01-23T00:46:35.236Z,760.33
2019-01-23T00:46:39.527Z,760.32
2019-01-23T00:46:43.812Z,760.32
2019-01-23T00:46:48.098Z,760.35
2019-01-23T00:46:52.396Z,760.32
2019-01-23T00:46:56.686Z,760.29
2019-01-23T00:47:00.977Z,760.27
2019-01-23T00:47:05.269Z,760.27
2019-01-23T00:47:09.562Z,760.25
2019-01-23T00:47:13.851Z,760.29
2019-01-23T00:47:18.057Z,760.29
2019-01-23T00:47:22.345Z,760.29
2019-01-23T00:47:26.658Z,760.28
2019-01-23T00:47:30.947Z,760.31
2019-01-23T00:47:35.241Z,760.31
2019-01-23T00:47:39.451Z,760.31
2019-01-23T00:47:43.738Z,760.28
2019-01-23T00:47:48.031Z,760.33
2019-01-23T00:47:52.318Z,760.31
2019-01-23T00:47:56.612Z,760.28
2019-01-23T00:48:00.806Z,760.28
2019-01-23T00:48:05.094Z,760.28
2019-01-23T00:48:09.387Z,760.29
2019-01-23T00:48:13.578Z,760.26
2019-01-23T00:48:17.772Z,760.26
2019-01-23T00:48:21.886Z,760.27
2019-01-23T00:48:26.082Z,760.26
2019-01-23T00:48:30.379Z,760.25
2019-01-23T00:48:34.578Z,760.23
2019-01-23T00:48:38.862Z,760.2
2019-01-23T00:48:43.151Z,760.19
2019-01-23T00:48:47.449Z,760.16
2019-01-23T00:48:51.739Z,760.18
2019-01-23T00:48:55.926Z,760.2
2019-01-23T00:49:00.211Z,760.16
2019-01-23T00:49:04.507Z,760.2
2019-01-23T00:49:08.800Z,760.16
2019-01-23T00:49:13.090Z,760.14
2019-01-23T00:49:17.391Z,760.18
2019-01-23T00:49:21.677Z,760.15
2019-01-23T00:49:25.966Z,760.14
2019-01-23T00:49:30.253Z,760.13
2019-01-23T00:49:34.539Z,760.1
2019-01-23T00:49:38.729Z,760.13
2019-01-23T00:49:43.019Z,760.13
2019-01-23T00:49:47.303Z,760.11
2019-01-23T00:49:51.392Z,760.11
2019-01-23T00:49:55.673Z,760.09
2019-01-23T00:49:59.958Z,760.1
2019-01-23T00:50:04.305Z,760.1
2019-01-23T00:50:08.592Z,760.13
2019-01-23T00:50:12.878Z,760.13
2019-01-23T00:50:17.173Z,760.13
2019-01-23T00:50:21.458Z,760.11
2019-01-23T00:50:25.760Z,760.09
2019-01-23T00:50:30.048Z,760.1
2019-01-23T00:50:34.338Z,760.09
2019-01-23T00:50:38.656Z,760.12
2019-01-23T00:50:42.939Z,760.09
2019-01-23T00:50:47.218Z,760.07
2019-01-23T00:50:51.518Z,760.06
2019-01-23T00:50:55.809Z,760.06
2019-01-23T00:51:00.012Z,760.06
2019-01-23T00:51:04.202Z,760.05
2019-01-23T00:51:08.490Z,760.06
2019-01-23T00:51:12.778Z,760.05
2019-01-23T00:51:17.063Z,760.03
2019-01-23T00:51:21.350Z,759.99
2019-01-23T00:51:25.557Z,760.02
2019-01-23T00:51:29.750Z,760
2019-01-23T00:51:34.042Z,760
2019-01-23T00:51:38.339Z,759.97
2019-01-23T00:51:42.629Z,759.96
2019-01-23T00:51:46.918Z,759.99
2019-01-23T00:51:51.208Z,759.97
2019-01-23T00:51:55.494Z,759.95
2019-01-23T00:51:59.680Z,759.99
2019-01-23T00:52:03.986Z,759.94
2019-01-23T00:52:08.280Z,759.98
2019-01-23T00:52:12.573Z,759.95
2019-01-23T00:52:16.773Z,759.94
2019-01-23T00:52:20.972Z,759.91
2019-01-23T00:52:25.070Z,759.93
2019-01-23T00:52:29.279Z,759.92
2019-01-23T00:52:33.574Z,759.9
2019-01-23T00:52:37.760Z,759.9
2019-01-23T00:52:41.950Z,759.9
2019-01-23T00:52:46.233Z,759.92
2019-01-23T00:52:50.521Z,759.92
2019-01-23T00:52:54.816Z,759.92
2019-01-23T00:52:59.102Z,759.91
2019-01-23T00:53:03.446Z,759.91
2019-01-23T00:53:07.739Z,759.92
2019-01-23T00:53:12.023Z,759.9
2019-01-23T00:53:16.317Z,759.91
2019-01-23T00:53:20.609Z,759.95
2019-01-23T00:53:24.894Z,759.94
2019-01-23T00:53:29.081Z,759.91
2019-01-23T00:53:33.188Z,759.95